sensor_id;sensor_type;location;lat;lon;timestamp;P1;durP1;ratioP1;P2;durP2;ratioP2
20589;SDS011;10453;50.810;12.540;2023-07-22T00:04:17;18.55;;;7.70;;
20589;SDS011;10453;50.810;12.540;2023-07-22T00:08:35;19.50;;;7.53;;
20589;SDS011;10453;50.810;12.540;2023-07-22T00:12:54;19.63;;;9.50;;
20589;SDS011;10453;50.810;12.540;2023-07-22T00:17:16;19.52;;;11.07;;
20589;SDS011;10453;50.810;12.540;2023-07-22T00:21:34;19.60;;;8.80;;
20589;SDS011;10453;50.810;12.540;2023-07-22T00:25:54;16.75;;;8.70;;
20589;SDS011;10453;50.810;12.540;2023-07-22T00:30:13;15.30;;;8.07;;
20589;SDS011;10453;50.810;12.540;2023-07-22T00:34:30;17.25;;;9.23;;
20589;SDS011;10453;50.810;12.540;2023-07-22T00:38:48;19.75;;;7.53;;
20589;SDS011;10453;50.810;12.540;2023-07-22T00:43:05;25.98;;;8.68;;
20589;SDS011;10453;50.810;12.540;2023-07-22T00:47:26;17.50;;;8.02;;
20589;SDS011;10453;50.810;12.540;2023-07-22T00:51:44;19.25;;;8.52;;
20589;SDS011;10453;50.810;12.540;2023-07-22T00:56:01;20.48;;;8.95;;
20589;SDS011;10453;50.810;12.540;2023-07-22T01:00:19;18.58;;;7.53;;
20589;SDS011;10453;50.810;12.540;2023-07-22T01:04:39;18.80;;;7.75;;
20589;SDS011;10453;50.810;12.540;2023-07-22T01:09:00;21.95;;;9.15;;
20589;SDS011;10453;50.810;12.540;2023-07-22T01:13:18;18.08;;;8.23;;
20589;SDS011;10453;50.810;12.540;2023-07-22T01:17:39;25.67;;;11.88;;
20589;SDS011;10453;50.810;12.540;2023-07-22T01:21:57;17.73;;;8.47;;
20589;SDS011;10453;50.810;12.540;2023-07-22T01:26:17;19.67;;;8.73;;
20589;SDS011;10453;50.810;12.540;2023-07-22T01:30:34;24.85;;;8.68;;
20589;SDS011;10453;50.810;12.540;2023-07-22T01:34:52;16.00;;;8.98;;
20589;SDS011;10453;50.810;12.540;2023-07-22T01:39:10;17.88;;;9.20;;
20589;SDS011;10453;50.810;12.540;2023-07-22T01:43:30;23.90;;;9.73;;
20589;SDS011;10453;50.810;12.540;2023-07-22T01:47:51;26.65;;;9.35;;
20589;SDS011;10453;50.810;12.540;2023-07-22T01:52:16;17.40;;;8.05;;
20589;SDS011;10453;50.810;12.540;2023-07-22T01:56:34;22.17;;;10.45;;
20589;SDS011;10453;50.810;12.540;2023-07-22T02:00:52;21.77;;;8.55;;
20589;SDS011;10453;50.810;12.540;2023-07-22T02:05:10;23.92;;;8.07;;
20589;SDS011;10453;50.810;12.540;2023-07-22T02:09:27;22.48;;;8.38;;
20589;SDS011;10453;50.810;12.540;2023-07-22T02:13:45;16.75;;;9.25;;
20589;SDS011;10453;50.810;12.540;2023-07-22T02:18:02;21.92;;;9.80;;
20589;SDS011;10453;50.810;12.540;2023-07-22T02:22:20;20.45;;;8.82;;
20589;SDS011;10453;50.810;12.540;2023-07-22T02:26:37;23.80;;;10.00;;
20589;SDS011;10453;50.810;12.540;2023-07-22T02:30:55;34.25;;;14.98;;
20589;SDS011;10453;50.810;12.540;2023-07-22T02:35:12;23.85;;;10.75;;
20589;SDS011;10453;50.810;12.540;2023-07-22T02:43:51;26.50;;;12.23;;
20589;SDS011;10453;50.810;12.540;2023-07-22T02:48:09;22.80;;;9.73;;
20589;SDS011;10453;50.810;12.540;2023-07-22T02:52:26;24.60;;;10.40;;
20589;SDS011;10453;50.810;12.540;2023-07-22T02:56:46;22.63;;;9.55;;
20589;SDS011;10453;50.810;12.540;2023-07-22T03:01:04;27.98;;;10.93;;
20589;SDS011;10453;50.810;12.540;2023-07-22T03:05:24;34.33;;;13.63;;
20589;SDS011;10453;50.810;12.540;2023-07-22T03:09:43;37.58;;;13.45;;
20589;SDS011;10453;50.810;12.540;2023-07-22T03:14:00;43.22;;;17.15;;
20589;SDS011;10453;50.810;12.540;2023-07-22T03:18:19;32.17;;;13.73;;
20589;SDS011;10453;50.810;12.540;2023-07-22T03:22:36;24.63;;;11.52;;
20589;SDS011;10453;50.810;12.540;2023-07-22T03:26:54;29.45;;;12.70;;
20589;SDS011;10453;50.810;12.540;2023-07-22T03:31:13;24.77;;;11.48;;
20589;SDS011;10453;50.810;12.540;2023-07-22T03:35:32;22.83;;;9.40;;
20589;SDS011;10453;50.810;12.540;2023-07-22T03:39:50;22.05;;;11.20;;
20589;SDS011;10453;50.810;12.540;2023-07-22T03:44:11;14.80;;;9.45;;
20589;SDS011;10453;50.810;12.540;2023-07-22T03:48:30;20.20;;;10.70;;
20589;SDS011;10453;50.810;12.540;2023-07-22T03:52:47;22.92;;;9.70;;
20589;SDS011;10453;50.810;12.540;2023-07-22T03:57:05;19.52;;;9.50;;
20589;SDS011;10453;50.810;12.540;2023-07-22T04:01:26;21.80;;;9.40;;
20589;SDS011;10453;50.810;12.540;2023-07-22T04:05:44;17.88;;;10.38;;
20589;SDS011;10453;50.810;12.540;2023-07-22T04:10:01;23.85;;;9.95;;
20589;SDS011;10453;50.810;12.540;2023-07-22T04:14:21;18.40;;;10.60;;
20589;SDS011;10453;50.810;12.540;2023-07-22T04:18:40;15.90;;;10.30;;
20589;SDS011;10453;50.810;12.540;2023-07-22T04:23:00;20.98;;;11.48;;
20589;SDS011;10453;50.810;12.540;2023-07-22T04:27:17;21.90;;;11.23;;
20589;SDS011;10453;50.810;12.540;2023-07-22T04:31:35;17.42;;;10.02;;
20589;SDS011;10453;50.810;12.540;2023-07-22T04:35:59;16.65;;;10.50;;
20589;SDS011;10453;50.810;12.540;2023-07-22T04:40:16;23.38;;;10.35;;
20589;SDS011;10453;50.810;12.540;2023-07-22T04:44:35;13.85;;;9.90;;
20589;SDS011;10453;50.810;12.540;2023-07-22T04:48:56;20.48;;;9.77;;
20589;SDS011;10453;50.810;12.540;2023-07-22T04:53:16;18.20;;;10.05;;
20589;SDS011;10453;50.810;12.540;2023-07-22T04:57:37;19.17;;;10.70;;
20589;SDS011;10453;50.810;12.540;2023-07-22T05:01:56;21.85;;;12.57;;
20589;SDS011;10453;50.810;12.540;2023-07-22T05:06:23;20.10;;;10.95;;
20589;SDS011;10453;50.810;12.540;2023-07-22T05:10:44;15.98;;;9.88;;
20589;SDS011;10453;50.810;12.540;2023-07-22T05:15:02;14.85;;;8.95;;
20589;SDS011;10453;50.810;12.540;2023-07-22T05:19:19;16.70;;;8.90;;
20589;SDS011;10453;50.810;12.540;2023-07-22T05:23:37;18.50;;;9.37;;
20589;SDS011;10453;50.810;12.540;2023-07-22T05:27:57;19.05;;;9.63;;
20589;SDS011;10453;50.810;12.540;2023-07-22T05:32:15;11.15;;;8.98;;
20589;SDS011;10453;50.810;12.540;2023-07-22T05:36:49;19.65;;;12.02;;
20589;SDS011;10453;50.810;12.540;2023-07-22T05:41:06;12.95;;;10.77;;
20589;SDS011;10453;50.810;12.540;2023-07-22T05:45:26;19.98;;;11.55;;
20589;SDS011;10453;50.810;12.540;2023-07-22T05:49:46;16.50;;;9.45;;
20589;SDS011;10453;50.810;12.540;2023-07-22T05:54:04;15.05;;;10.90;;
20589;SDS011;10453;50.810;12.540;2023-07-22T05:58:22;14.40;;;9.80;;
20589;SDS011;10453;50.810;12.540;2023-07-22T06:02:42;13.50;;;9.50;;
20589;SDS011;10453;50.810;12.540;2023-07-22T06:07:00;14.70;;;9.55;;
20589;SDS011;10453;50.810;12.540;2023-07-22T06:11:18;11.30;;;9.80;;
20589;SDS011;10453;50.810;12.540;2023-07-22T06:15:38;14.88;;;12.13;;
20589;SDS011;10453;50.810;12.540;2023-07-22T06:19:55;15.38;;;10.52;;
20589;SDS011;10453;50.810;12.540;2023-07-22T06:24:17;12.57;;;9.75;;
20589;SDS011;10453;50.810;12.540;2023-07-22T06:28:34;15.63;;;11.60;;
20589;SDS011;10453;50.810;12.540;2023-07-22T06:32:55;15.45;;;10.57;;
20589;SDS011;10453;50.810;12.540;2023-07-22T06:37:12;17.25;;;12.30;;
20589;SDS011;10453;50.810;12.540;2023-07-22T06:41:30;13.13;;;9.43;;
20589;SDS011;10453;50.810;12.540;2023-07-22T06:45:50;15.32;;;10.35;;
20589;SDS011;10453;50.810;12.540;2023-07-22T06:50:08;14.05;;;9.93;;
20589;SDS011;10453;50.810;12.540;2023-07-22T06:54:26;15.20;;;10.70;;
20589;SDS011;10453;50.810;12.540;2023-07-22T06:58:43;14.07;;;10.00;;
20589;SDS011;10453;50.810;12.540;2023-07-22T07:03:04;12.25;;;8.70;;
20589;SDS011;10453;50.810;12.540;2023-07-22T07:07:25;15.45;;;10.73;;
20589;SDS011;10453;50.810;12.540;2023-07-22T07:11:43;12.38;;;9.57;;
20589;SDS011;10453;50.810;12.540;2023-07-22T07:20:49;15.40;;;10.20;;
20589;SDS011;10453;50.810;12.540;2023-07-22T07:25:08;17.77;;;10.75;;
20589;SDS011;10453;50.810;12.540;2023-07-22T07:29:26;13.93;;;11.27;;
20589;SDS011;10453;50.810;12.540;2023-07-22T07:34:04;15.45;;;11.32;;
20589;SDS011;10453;50.810;12.540;2023-07-22T07:38:22;13.30;;;11.03;;
20589;SDS011;10453;50.810;12.540;2023-07-22T07:42:39;15.52;;;10.18;;
20589;SDS011;10453;50.810;12.540;2023-07-22T07:46:57;11.70;;;9.75;;
20589;SDS011;10453;50.810;12.540;2023-07-22T07:51:15;11.02;;;9.50;;
20589;SDS011;10453;50.810;12.540;2023-07-22T07:55:34;10.25;;;9.00;;
20589;SDS011;10453;50.810;12.540;2023-07-22T07:59:54;9.35;;;8.07;;
20589;SDS011;10453;50.810;12.540;2023-07-22T08:04:14;9.70;;;7.88;;
20589;SDS011;10453;50.810;12.540;2023-07-22T08:08:40;7.95;;;7.15;;
20589;SDS011;10453;50.810;12.540;2023-07-22T08:13:01;8.77;;;7.95;;
20589;SDS011;10453;50.810;12.540;2023-07-22T08:17:21;10.07;;;7.50;;
20589;SDS011;10453;50.810;12.540;2023-07-22T08:21:41;8.52;;;7.18;;
20589;SDS011;10453;50.810;12.540;2023-07-22T08:26:07;5.72;;;5.20;;
20589;SDS011;10453;50.810;12.540;2023-07-22T08:30:24;5.38;;;4.88;;
20589;SDS011;10453;50.810;12.540;2023-07-22T08:34:42;5.27;;;4.77;;
20589;SDS011;10453;50.810;12.540;2023-07-22T08:39:01;7.32;;;4.28;;
20589;SDS011;10453;50.810;12.540;2023-07-22T08:43:21;4.78;;;4.00;;
20589;SDS011;10453;50.810;12.540;2023-07-22T08:52:35;7.07;;;3.20;;
20589;SDS011;10453;50.810;12.540;2023-07-22T08:57:01;12.75;;;4.03;;
20589;SDS011;10453;50.810;12.540;2023-07-22T09:01:24;6.78;;;3.83;;
20589;SDS011;10453;50.810;12.540;2023-07-22T09:05:45;5.38;;;3.20;;
20589;SDS011;10453;50.810;12.540;2023-07-22T09:10:05;4.43;;;3.40;;
20589;SDS011;10453;50.810;12.540;2023-07-22T09:14:25;4.70;;;3.78;;
20589;SDS011;10453;50.810;12.540;2023-07-22T09:18:58;3.80;;;3.40;;
20589;SDS011;10453;50.810;12.540;2023-07-22T09:23:16;4.10;;;3.67;;
20589;SDS011;10453;50.810;12.540;2023-07-22T09:27:43;4.65;;;3.63;;
20589;SDS011;10453;50.810;12.540;2023-07-22T09:32:01;5.85;;;3.90;;
20589;SDS011;10453;50.810;12.540;2023-07-22T09:36:24;7.35;;;3.53;;
20589;SDS011;10453;50.810;12.540;2023-07-22T09:40:47;5.68;;;3.50;;
20589;SDS011;10453;50.810;12.540;2023-07-22T09:45:05;5.60;;;3.70;;
20589;SDS011;10453;50.810;12.540;2023-07-22T09:53:44;5.00;;;3.80;;
20589;SDS011;10453;50.810;12.540;2023-07-22T09:58:09;4.97;;;3.67;;
20589;SDS011;10453;50.810;12.540;2023-07-22T10:02:38;4.32;;;3.50;;
20589;SDS011;10453;50.810;12.540;2023-07-22T10:07:02;4.68;;;3.55;;
20589;SDS011;10453;50.810;12.540;2023-07-22T10:11:22;4.47;;;3.83;;
20589;SDS011;10453;50.810;12.540;2023-07-22T10:15:50;4.32;;;3.30;;
20589;SDS011;10453;50.810;12.540;2023-07-22T10:20:08;4.32;;;3.42;;
20589;SDS011;10453;50.810;12.540;2023-07-22T10:24:39;4.45;;;3.30;;
20589;SDS011;10453;50.810;12.540;2023-07-22T10:28:58;3.88;;;3.10;;
20589;SDS011;10453;50.810;12.540;2023-07-22T10:33:16;3.50;;;3.20;;
20589;SDS011;10453;50.810;12.540;2023-07-22T10:37:34;4.83;;;3.33;;
20589;SDS011;10453;50.810;12.540;2023-07-22T10:42:02;3.50;;;3.20;;
20589;SDS011;10453;50.810;12.540;2023-07-22T10:51:12;3.97;;;3.58;;
20589;SDS011;10453;50.810;12.540;2023-07-22T10:56:01;4.07;;;3.75;;
20589;SDS011;10453;50.810;12.540;2023-07-22T11:00:24;3.97;;;3.60;;
20589;SDS011;10453;50.810;12.540;2023-07-22T11:04:49;5.40;;;4.00;;
20589;SDS011;10453;50.810;12.540;2023-07-22T11:13:50;4.47;;;3.50;;
20589;SDS011;10453;50.810;12.540;2023-07-22T11:18:10;7.18;;;3.20;;
20589;SDS011;10453;50.810;12.540;2023-07-22T11:22:33;4.10;;;3.42;;
20589;SDS011;10453;50.810;12.540;2023-07-22T11:26:52;6.07;;;3.38;;
20589;SDS011;10453;50.810;12.540;2023-07-22T11:31:13;3.88;;;3.42;;
20589;SDS011;10453;50.810;12.540;2023-07-22T11:35:31;4.13;;;3.63;;
20589;SDS011;10453;50.810;12.540;2023-07-22T11:39:48;9.73;;;3.80;;
20589;SDS011;10453;50.810;12.540;2023-07-22T11:44:06;4.93;;;3.65;;
20589;SDS011;10453;50.810;12.540;2023-07-22T11:48:27;5.28;;;3.75;;
20589;SDS011;10453;50.810;12.540;2023-07-22T11:52:50;4.85;;;3.97;;
20589;SDS011;10453;50.810;12.540;2023-07-22T12:01:33;5.53;;;3.70;;
20589;SDS011;10453;50.810;12.540;2023-07-22T12:05:51;4.13;;;3.73;;
20589;SDS011;10453;50.810;12.540;2023-07-22T12:10:09;4.25;;;3.70;;
20589;SDS011;10453;50.810;12.540;2023-07-22T12:14:34;4.40;;;4.00;;
20589;SDS011;10453;50.810;12.540;2023-07-22T12:18:54;6.47;;;3.65;;
20589;SDS011;10453;50.810;12.540;2023-07-22T12:23:17;5.10;;;3.88;;
20589;SDS011;10453;50.810;12.540;2023-07-22T12:27:45;3.97;;;3.67;;
20589;SDS011;10453;50.810;12.540;2023-07-22T12:32:05;4.28;;;3.88;;
20589;SDS011;10453;50.810;12.540;2023-07-22T12:36:28;4.28;;;3.67;;
20589;SDS011;10453;50.810;12.540;2023-07-22T12:40:57;3.33;;;3.03;;
20589;SDS011;10453;50.810;12.540;2023-07-22T12:45:19;4.78;;;3.30;;
20589;SDS011;10453;50.810;12.540;2023-07-22T12:49:47;6.45;;;3.63;;
20589;SDS011;10453;50.810;12.540;2023-07-22T12:58:45;3.80;;;3.50;;
20589;SDS011;10453;50.810;12.540;2023-07-22T13:03:03;5.80;;;3.25;;
20589;SDS011;10453;50.810;12.540;2023-07-22T13:07:24;4.65;;;3.20;;
20589;SDS011;10453;50.810;12.540;2023-07-22T13:11:46;3.75;;;3.40;;
20589;SDS011;10453;50.810;12.540;2023-07-22T13:16:09;4.10;;;3.70;;
20589;SDS011;10453;50.810;12.540;2023-07-22T13:20:39;4.50;;;4.10;;
20589;SDS011;10453;50.810;12.540;2023-07-22T13:25:05;4.35;;;3.83;;
20589;SDS011;10453;50.810;12.540;2023-07-22T13:29:27;5.05;;;3.80;;
20589;SDS011;10453;50.810;12.540;2023-07-22T13:33:53;6.15;;;4.15;;
20589;SDS011;10453;50.810;12.540;2023-07-22T13:38:13;6.13;;;4.32;;
20589;SDS011;10453;50.810;12.540;2023-07-22T13:42:31;4.00;;;3.60;;
20589;SDS011;10453;50.810;12.540;2023-07-22T13:46:49;5.50;;;4.50;;
20589;SDS011;10453;50.810;12.540;2023-07-22T13:51:07;6.22;;;4.22;;
20589;SDS011;10453;50.810;12.540;2023-07-22T13:55:33;4.68;;;4.28;;
20589;SDS011;10453;50.810;12.540;2023-07-22T13:59:51;7.38;;;4.45;;
20589;SDS011;10453;50.810;12.540;2023-07-22T14:04:09;8.10;;;4.30;;
20589;SDS011;10453;50.810;12.540;2023-07-22T14:08:35;5.10;;;3.97;;
20589;SDS011;10453;50.810;12.540;2023-07-22T14:12:53;7.03;;;3.85;;
20589;SDS011;10453;50.810;12.540;2023-07-22T14:17:14;7.10;;;3.90;;
20589;SDS011;10453;50.810;12.540;2023-07-22T14:21:45;4.20;;;3.85;;
20589;SDS011;10453;50.810;12.540;2023-07-22T14:26:04;4.93;;;4.05;;
20589;SDS011;10453;50.810;12.540;2023-07-22T14:30:22;4.80;;;4.20;;
20589;SDS011;10453;50.810;12.540;2023-07-22T14:45:17;6.80;;;3.85;;
20589;SDS011;10453;50.810;12.540;2023-07-22T14:49:37;5.05;;;4.20;;
20589;SDS011;10453;50.810;12.540;2023-07-22T15:00:46;4.18;;;3.78;;
20589;SDS011;10453;50.810;12.540;2023-07-22T15:05:27;4.40;;;4.00;;
20589;SDS011;10453;50.810;12.540;2023-07-22T15:10:44;4.32;;;3.90;;
20589;SDS011;10453;50.810;12.540;2023-07-22T15:15:21;6.57;;;3.92;;
20589;SDS011;10453;50.810;12.540;2023-07-22T15:20:12;5.80;;;4.28;;
20589;SDS011;10453;50.810;12.540;2023-07-22T15:24:46;4.15;;;3.75;;
20589;SDS011;10453;50.810;12.540;2023-07-22T15:29:39;5.07;;;4.30;;
20589;SDS011;10453;50.810;12.540;2023-07-22T15:34:13;4.70;;;4.20;;
20589;SDS011;10453;50.810;12.540;2023-07-22T15:38:44;6.05;;;3.78;;
20589;SDS011;10453;50.810;12.540;2023-07-22T15:43:13;5.03;;;4.32;;
20589;SDS011;10453;50.810;12.540;2023-07-22T15:47:39;5.22;;;4.00;;
20589;SDS011;10453;50.810;12.540;2023-07-22T15:52:07;4.63;;;4.10;;
20589;SDS011;10453;50.810;12.540;2023-07-22T15:56:41;7.20;;;4.53;;
20589;SDS011;10453;50.810;12.540;2023-07-22T16:01:21;4.80;;;4.30;;
20589;SDS011;10453;50.810;12.540;2023-07-22T16:05:42;6.13;;;4.47;;
20589;SDS011;10453;50.810;12.540;2023-07-22T16:10:00;7.45;;;4.60;;
20589;SDS011;10453;50.810;12.540;2023-07-22T16:14:25;4.53;;;4.03;;
20589;SDS011;10453;50.810;12.540;2023-07-22T16:18:45;4.93;;;4.43;;
20589;SDS011;10453;50.810;12.540;2023-07-22T16:23:04;4.53;;;4.13;;
20589;SDS011;10453;50.810;12.540;2023-07-22T16:27:23;6.93;;;4.53;;
20589;SDS011;10453;50.810;12.540;2023-07-22T16:31:59;4.95;;;4.35;;
20589;SDS011;10453;50.810;12.540;2023-07-22T16:36:20;4.85;;;4.18;;
20589;SDS011;10453;50.810;12.540;2023-07-22T16:40:43;7.35;;;4.53;;
20589;SDS011;10453;50.810;12.540;2023-07-22T16:45:06;4.78;;;4.20;;
20589;SDS011;10453;50.810;12.540;2023-07-22T16:49:31;6.95;;;4.22;;
20589;SDS011;10453;50.810;12.540;2023-07-22T16:53:53;6.47;;;4.93;;
20589;SDS011;10453;50.810;12.540;2023-07-22T16:58:28;4.68;;;4.28;;
20589;SDS011;10453;50.810;12.540;2023-07-22T17:02:46;7.60;;;4.40;;
20589;SDS011;10453;50.810;12.540;2023-07-22T17:07:07;5.97;;;4.77;;
20589;SDS011;10453;50.810;12.540;2023-07-22T17:11:28;6.50;;;4.90;;
20589;SDS011;10453;50.810;12.540;2023-07-22T17:15:50;5.85;;;4.40;;
20589;SDS011;10453;50.810;12.540;2023-07-22T17:20:16;4.65;;;4.15;;
20589;SDS011;10453;50.810;12.540;2023-07-22T17:24:40;5.65;;;3.95;;
20589;SDS011;10453;50.810;12.540;2023-07-22T17:29:01;4.90;;;4.20;;
20589;SDS011;10453;50.810;12.540;2023-07-22T17:34:00;8.02;;;4.03;;
20589;SDS011;10453;50.810;12.540;2023-07-22T17:38:43;7.68;;;4.30;;
20589;SDS011;10453;50.810;12.540;2023-07-22T17:43:15;7.38;;;4.32;;
20589;SDS011;10453;50.810;12.540;2023-07-22T17:48:06;7.07;;;4.45;;
20589;SDS011;10453;50.810;12.540;2023-07-22T17:57:54;6.05;;;4.38;;
20589;SDS011;10453;50.810;12.540;2023-07-22T18:02:37;7.37;;;4.53;;
20589;SDS011;10453;50.810;12.540;2023-07-22T18:07:25;15.70;;;5.07;;
20589;SDS011;10453;50.810;12.540;2023-07-22T18:18:59;41.00;;;6.50;;
20589;SDS011;10453;50.810;12.540;2023-07-22T18:29:18;6.03;;;4.53;;
20589;SDS011;10453;50.810;12.540;2023-07-22T18:34:37;5.25;;;4.20;;
20589;SDS011;10453;50.810;12.540;2023-07-22T18:39:03;8.80;;;4.20;;
20589;SDS011;10453;50.810;12.540;2023-07-22T18:44:25;11.23;;;4.68;;
20589;SDS011;10453;50.810;12.540;2023-07-22T18:49:34;10.40;;;5.50;;
20589;SDS011;10453;50.810;12.540;2023-07-22T18:54:48;17.77;;;6.75;;
20589;SDS011;10453;50.810;12.540;2023-07-22T18:59:12;18.00;;;7.03;;
20589;SDS011;10453;50.810;12.540;2023-07-22T19:03:35;22.13;;;9.02;;
20589;SDS011;10453;50.810;12.540;2023-07-22T19:08:15;44.10;;;12.45;;
20589;SDS011;10453;50.810;12.540;2023-07-22T19:13:09;28.58;;;12.55;;
20589;SDS011;10453;50.810;12.540;2023-07-22T19:18:12;22.67;;;9.50;;
20589;SDS011;10453;50.810;12.540;2023-07-22T19:28:17;20.75;;;7.70;;
20589;SDS011;10453;50.810;12.540;2023-07-22T19:33:00;24.02;;;8.25;;
20589;SDS011;10453;50.810;12.540;2023-07-22T19:38:04;34.35;;;8.65;;
20589;SDS011;10453;50.810;12.540;2023-07-22T19:42:52;20.65;;;9.05;;
20589;SDS011;10453;50.810;12.540;2023-07-22T19:47:34;28.10;;;10.85;;
20589;SDS011;10453;50.810;12.540;2023-07-22T19:52:08;31.73;;;11.98;;
20589;SDS011;10453;50.810;12.540;2023-07-22T19:57:06;19.10;;;10.23;;
20589;SDS011;10453;50.810;12.540;2023-07-22T20:01:30;18.90;;;9.90;;
20589;SDS011;10453;50.810;12.540;2023-07-22T20:06:32;16.15;;;9.73;;
20589;SDS011;10453;50.810;12.540;2023-07-22T20:10:54;14.07;;;9.45;;
20589;SDS011;10453;50.810;12.540;2023-07-22T20:15:17;17.35;;;8.18;;
20589;SDS011;10453;50.810;12.540;2023-07-22T20:19:50;19.15;;;8.20;;
20589;SDS011;10453;50.810;12.540;2023-07-22T20:24:32;12.60;;;7.75;;
20589;SDS011;10453;50.810;12.540;2023-07-22T20:28:56;11.45;;;7.32;;
20589;SDS011;10453;50.810;12.540;2023-07-22T20:33:22;10.38;;;6.60;;
20589;SDS011;10453;50.810;12.540;2023-07-22T20:38:04;8.23;;;6.30;;
20589;SDS011;10453;50.810;12.540;2023-07-22T20:42:49;7.15;;;5.85;;
20589;SDS011;10453;50.810;12.540;2023-07-22T20:47:58;8.77;;;6.20;;
20589;SDS011;10453;50.810;12.540;2023-07-22T20:52:18;15.40;;;7.05;;
20589;SDS011;10453;50.810;12.540;2023-07-22T20:56:47;15.93;;;7.97;;
20589;SDS011;10453;50.810;12.540;2023-07-22T21:01:12;8.48;;;7.30;;
20589;SDS011;10453;50.810;12.540;2023-07-22T21:05:30;11.00;;;7.67;;
20589;SDS011;10453;50.810;12.540;2023-07-22T21:09:55;9.68;;;7.45;;
20589;SDS011;10453;50.810;12.540;2023-07-22T21:14:18;14.13;;;8.75;;
20589;SDS011;10453;50.810;12.540;2023-07-22T21:18:41;9.45;;;7.57;;
20589;SDS011;10453;50.810;12.540;2023-07-22T21:23:02;13.27;;;7.38;;
20589;SDS011;10453;50.810;12.540;2023-07-22T21:27:20;11.10;;;8.75;;
20589;SDS011;10453;50.810;12.540;2023-07-22T21:36:08;13.02;;;7.75;;
20589;SDS011;10453;50.810;12.540;2023-07-22T21:44:56;7.95;;;7.07;;
20589;SDS011;10453;50.810;12.540;2023-07-22T21:49:14;8.30;;;7.32;;
20589;SDS011;10453;50.810;12.540;2023-07-22T21:53:36;7.90;;;6.95;;
20589;SDS011;10453;50.810;12.540;2023-07-22T21:57:56;7.90;;;6.35;;
20589;SDS011;10453;50.810;12.540;2023-07-22T22:02:20;7.00;;;6.28;;
20589;SDS011;10453;50.810;12.540;2023-07-22T22:06:37;8.30;;;6.15;;
20589;SDS011;10453;50.810;12.540;2023-07-22T22:11:04;12.00;;;7.05;;
20589;SDS011;10453;50.810;12.540;2023-07-22T22:15:26;9.55;;;7.13;;
20589;SDS011;10453;50.810;12.540;2023-07-22T22:19:44;10.10;;;6.97;;
20589;SDS011;10453;50.810;12.540;2023-07-22T22:24:03;7.65;;;6.85;;
20589;SDS011;10453;50.810;12.540;2023-07-22T22:28:30;11.13;;;6.95;;
20589;SDS011;10453;50.810;12.540;2023-07-22T22:32:55;9.13;;;6.88;;
20589;SDS011;10453;50.810;12.540;2023-07-22T22:37:12;8.35;;;6.57;;
20589;SDS011;10453;50.810;12.540;2023-07-22T22:41:31;11.18;;;7.55;;
20589;SDS011;10453;50.810;12.540;2023-07-22T22:45:52;11.23;;;8.00;;
20589;SDS011;10453;50.810;12.540;2023-07-22T22:50:14;9.30;;;8.00;;
20589;SDS011;10453;50.810;12.540;2023-07-22T22:54:40;9.27;;;8.27;;
20589;SDS011;10453;50.810;12.540;2023-07-22T22:58:57;11.85;;;7.25;;
20589;SDS011;10453;50.810;12.540;2023-07-22T23:03:20;8.02;;;6.05;;
20589;SDS011;10453;50.810;12.540;2023-07-22T23:07:41;7.95;;;6.82;;
20589;SDS011;10453;50.810;12.540;2023-07-22T23:12:02;7.85;;;6.50;;
20589;SDS011;10453;50.810;12.540;2023-07-22T23:16:29;10.60;;;7.80;;
20589;SDS011;10453;50.810;12.540;2023-07-22T23:20:47;9.07;;;5.70;;
20589;SDS011;10453;50.810;12.540;2023-07-22T23:25:05;6.90;;;4.97;;
20589;SDS011;10453;50.810;12.540;2023-07-22T23:29:24;7.13;;;5.95;;
20589;SDS011;10453;50.810;12.540;2023-07-22T23:33:48;6.95;;;5.40;;
20589;SDS011;10453;50.810;12.540;2023-07-22T23:38:06;7.15;;;5.60;;
20589;SDS011;10453;50.810;12.540;2023-07-22T23:42:34;8.38;;;6.22;;
20589;SDS011;10453;50.810;12.540;2023-07-22T23:46:52;5.95;;;5.30;;
20589;SDS011;10453;50.810;12.540;2023-07-22T23:51:16;5.43;;;4.82;;
20589;SDS011;10453;50.810;12.540;2023-07-22T23:55:36;6.82;;;4.80;;
